Terminal Aerodrome Forecast
Issued by NWS

Home | Current Version | Previous Version | Text Only | Print | Product List | Glossary On
Versions: 1 2 3 4 5 6 7 8 9 10 11 12 13 14 15 16 17 18 19 20 21 22 23
004
FTUS41 KBTV 240521
TAFSLK
TAF
KSLK 240521Z 2406/2506 09009KT 4SM -SNPL BR OVC035
     FM240800 07011G18KT 4SM -SNPL BR OVC020
     FM241400 06009KT 1SM -SN BR OVC010
     FM241700 06008KT 4SM -SNPL BR OVC010
     FM242000 01004KT 4SM -SNPL BR OVC010
     FM250100 VRB03KT 1SM -SN BR OVC008=

USA.gov is the U.S. government's official web portal to all federal, state and local government web resources and services.